createdAt,value
2017-02-27T00:00:43.880Z,1005.58
2017-02-27T00:01:54.622Z,1005.59
2017-02-27T00:03:05.636Z,1005.6
2017-02-27T00:04:15.612Z,1005.57
2017-02-27T00:05:26.372Z,1005.55
2017-02-27T00:06:36.725Z,1005.58
2017-02-27T00:07:47.490Z,1005.58
2017-02-27T00:08:58.504Z,1005.5
2017-02-27T00:10:09.269Z,1005.56
2017-02-27T00:11:20.040Z,1005.57
2017-02-27T00:12:29.988Z,1005.55
2017-02-27T00:13:40.392Z,1005.58
2017-02-27T00:14:51.448Z,1005.56
2017-02-27T00:16:01.823Z,1005.54
2017-02-27T00:17:12.596Z,1005.54
2017-02-27T00:18:23.342Z,1005.55
2017-02-27T00:19:34.116Z,1005.53
2017-02-27T00:20:45.176Z,1005.53
2017-02-27T00:21:55.162Z,1005.58
2017-02-27T00:23:05.925Z,1005.57
2017-02-27T00:24:16.299Z,1005.57
2017-02-27T00:25:26.674Z,1005.56
2017-02-27T00:26:37.739Z,1005.59
2017-02-27T00:27:48.517Z,1005.58
2017-02-27T00:28:59.269Z,1005.61
2017-02-27T00:30:10.026Z,1005.6
2017-02-27T00:31:20.782Z,1005.55
2017-02-27T00:32:31.422Z,1005.54
2017-02-27T00:33:42.180Z,1005.55
2017-02-27T00:34:52.544Z,1005.57
2017-02-27T00:36:03.298Z,1005.59
2017-02-27T00:37:14.084Z,1005.61
2017-02-27T00:38:25.192Z,1005.59
2017-02-27T00:39:35.179Z,1005.58
2017-02-27T00:40:45.937Z,1005.57
2017-02-27T00:41:56.693Z,1005.59
2017-02-27T00:43:07.445Z,1005.62
2017-02-27T00:44:18.449Z,1005.61
2017-02-27T00:45:29.202Z,1005.53
2017-02-27T00:46:39.185Z,1005.56
2017-02-27T00:47:49.547Z,1005.54
2017-02-27T00:49:00.328Z,1005.56
2017-02-27T00:50:10.929Z,1005.56
2017-02-27T00:51:21.278Z,1005.53
2017-02-27T00:52:32.010Z,1005.54
2017-02-27T00:53:42.818Z,1005.52
2017-02-27T00:54:53.213Z,1005.5
2017-02-27T00:56:03.035Z,1005.51
2017-02-27T00:57:13.790Z,1005.59
2017-02-27T00:58:24.148Z,1005.54
2017-02-27T00:59:34.490Z,1005.58
2017-02-27T01:00:45.245Z,1005.6
2017-02-27T01:01:56.257Z,1005.61
2017-02-27T01:03:06.622Z,1005.59
2017-02-27T01:04:17.388Z,1005.6
2017-02-27T01:05:28.148Z,1005.57
2017-02-27T01:06:38.913Z,1005.55
2017-02-27T01:07:49.573Z,1005.57
2017-02-27T01:08:59.152Z,1005.55
2017-02-27T01:10:09.109Z,1005.58
2017-02-27T01:11:19.467Z,1005.52
2017-02-27T01:12:30.218Z,1005.52
2017-02-27T01:13:40.494Z,1005.51
2017-02-27T01:14:51.262Z,1005.49
2017-02-27T01:16:01.608Z,1005.57
2017-02-27T01:17:11.966Z,1005.54
2017-02-27T01:18:22.740Z,1005.54
2017-02-27T01:19:33.399Z,1005.55
2017-02-27T01:20:44.161Z,1005.53
2017-02-27T01:21:54.106Z,1005.5
2017-02-27T01:23:04.459Z,1005.54
2017-02-27T01:24:14.830Z,1005.5
2017-02-27T01:25:25.501Z,1005.46
2017-02-27T01:26:35.875Z,1005.49
2017-02-27T01:27:46.212Z,1005.53
2017-02-27T01:28:56.967Z,1005.49
2017-02-27T01:30:07.312Z,1005.49
2017-02-27T01:31:17.921Z,1005.52
2017-02-27T01:32:28.269Z,1005.47
2017-02-27T01:33:38.615Z,1005.53
2017-02-27T01:34:49.361Z,1005.53
2017-02-27T01:47:05.892Z,1005.48
2017-02-27T01:52:56.613Z,1005.53
2017-02-27T01:54:07.236Z,1005.54
2017-02-27T01:55:17.968Z,1005.51
2017-02-27T01:56:28.724Z,1005.54
2017-02-27T01:57:38.702Z,1005.53
2017-02-27T01:58:49.060Z,1005.5
2017-02-27T01:59:59.681Z,1005.52
2017-02-27T02:01:10.422Z,1005.54
2017-02-27T02:02:20.785Z,1005.51
2017-02-27T02:03:31.159Z,1005.51
2017-02-27T02:04:41.908Z,1005.5
2017-02-27T02:05:52.512Z,1005.46
2017-02-27T02:07:02.853Z,1005.5
2017-02-27T02:08:12.831Z,1005.51
2017-02-27T02:09:23.195Z,1005.47
2017-02-27T02:10:33.975Z,1005.43
2017-02-27T02:11:44.982Z,1005.47
2017-02-27T02:12:55.332Z,1005.46
2017-02-27T02:14:06.082Z,1005.46
2017-02-27T02:15:16.847Z,1005.44
2017-02-27T02:16:27.617Z,1005.44
2017-02-27T02:17:37.832Z,1005.42
2017-02-27T02:18:48.592Z,1005.42
2017-02-27T02:19:59.368Z,1005.43
2017-02-27T02:21:09.739Z,1005.38
2017-02-27T02:22:20.114Z,1005.4
2017-02-27T02:23:31.134Z,1005.38
2017-02-27T02:24:41.893Z,1005.4
2017-02-27T02:25:52.635Z,1005.41
2017-02-27T02:27:03.400Z,1005.38
2017-02-27T02:28:13.741Z,1005.38
2017-02-27T02:29:24.827Z,1005.39
2017-02-27T02:30:35.598Z,1005.36
2017-02-27T02:31:45.541Z,1005.37
2017-02-27T02:32:56.312Z,1005.34
2017-02-27T02:34:06.279Z,1005.35
2017-02-27T02:35:17.264Z,1005.28
2017-02-27T02:36:27.621Z,1005.33
2017-02-27T02:37:37.999Z,1005.33
2017-02-27T02:38:48.347Z,1005.31
2017-02-27T02:39:58.296Z,1005.32
2017-02-27T02:41:09.301Z,1005.31
2017-02-27T02:42:20.059Z,1005.3
2017-02-27T02:43:30.674Z,1005.32
2017-02-27T02:44:41.455Z,1005.33
2017-02-27T02:45:52.235Z,1005.29
2017-02-27T02:47:02.862Z,1005.29
2017-02-27T02:48:13.612Z,1005.31
2017-02-27T02:49:24.387Z,1005.26
2017-02-27T02:50:34.767Z,1005.28
2017-02-27T02:51:44.767Z,1005.23
2017-02-27T02:52:55.823Z,1005.28
2017-02-27T02:54:06.597Z,1005.3
2017-02-27T02:55:16.572Z,1005.26
2017-02-27T02:56:27.320Z,1005.23
2017-02-27T02:57:37.312Z,1005.17
2017-02-27T02:58:47.922Z,1005.24
2017-02-27T02:59:57.867Z,1005.22
2017-02-27T03:01:08.242Z,1005.25
2017-02-27T03:02:18.988Z,1005.16
2017-02-27T03:03:28.962Z,1005.17
2017-02-27T03:04:39.189Z,1005.17
2017-02-27T03:05:49.533Z,1005.17
2017-02-27T03:07:00.306Z,1005.23
2017-02-27T03:08:10.700Z,1005.19
2017-02-27T03:09:21.451Z,1005.16
2017-02-27T03:10:32.053Z,1005.19
2017-02-27T03:11:42.424Z,1005.17
2017-02-27T03:12:53.192Z,1005.15
2017-02-27T03:14:03.562Z,1005.14
2017-02-27T03:15:14.392Z,1005.18
2017-02-27T03:16:25.432Z,1005.09
2017-02-27T03:17:36.187Z,1005.13
2017-02-27T03:18:46.139Z,1005.08
2017-02-27T03:19:56.898Z,1005.1
2017-02-27T03:21:07.511Z,1005.09
2017-02-27T03:22:18.110Z,1005.09
2017-02-27T03:23:28.482Z,1005.03
2017-02-27T03:24:38.430Z,1005.04
2017-02-27T03:25:49.201Z,1005.05
2017-02-27T03:26:59.572Z,1005.05
2017-02-27T03:28:10.193Z,1005
2017-02-27T03:29:20.554Z,1005.02
2017-02-27T03:30:30.900Z,1005.02
2017-02-27T03:31:41.652Z,1004.95
2017-02-27T03:32:51.626Z,1004.97
2017-02-27T03:34:02.699Z,1004.96
2017-02-27T03:35:13.048Z,1004.92
2017-02-27T03:36:23.432Z,1004.95
2017-02-27T03:37:34.190Z,1004.97
2017-02-27T03:38:44.924Z,1004.96
2017-02-27T03:39:55.939Z,1004.98
2017-02-27T03:41:06.302Z,1004.93
2017-02-27T03:42:17.046Z,1004.96
2017-02-27T03:43:27.809Z,1004.95
2017-02-27T03:44:38.187Z,1004.94
2017-02-27T03:45:49.235Z,1004.94
2017-02-27T03:46:59.604Z,1004.88
2017-02-27T03:48:09.968Z,1004.92
2017-02-27T03:49:20.715Z,1004.91
2017-02-27T03:50:31.486Z,1004.87
2017-02-27T03:51:42.494Z,1004.91
2017-02-27T03:52:53.283Z,1004.88
2017-02-27T03:54:04.042Z,1004.85
2017-02-27T03:55:14.413Z,1004.87
2017-02-27T03:56:24.395Z,1004.82
2017-02-27T03:57:35.076Z,1004.85
2017-02-27T03:58:45.452Z,1004.84
2017-02-27T03:59:56.209Z,1004.83
2017-02-27T04:01:06.970Z,1004.78
2017-02-27T04:02:17.340Z,1004.78
2017-02-27T04:03:28.184Z,1004.78
2017-02-27T04:04:38.942Z,1004.81
2017-02-27T04:05:49.695Z,1004.81
2017-02-27T04:07:00.090Z,1004.77
2017-02-27T04:08:10.497Z,1004.77
2017-02-27T04:09:21.126Z,1004.8
2017-02-27T04:10:31.895Z,1004.82
2017-02-27T04:11:42.669Z,1004.81
2017-02-27T04:12:52.640Z,1004.81
2017-02-27T04:14:02.989Z,1004.85
2017-02-27T04:15:14.001Z,1004.8
2017-02-27T04:16:24.759Z,1004.78
2017-02-27T04:17:34.715Z,1004.85
2017-02-27T04:18:45.463Z,1004.8
2017-02-27T04:19:56.205Z,1004.83
2017-02-27T04:21:06.020Z,1004.83
2017-02-27T04:22:16.000Z,1004.8
2017-02-27T04:23:26.349Z,1004.8
2017-02-27T04:24:36.711Z,1004.79
2017-02-27T04:25:47.473Z,1004.81
2017-02-27T04:26:58.058Z,1004.76
2017-02-27T04:28:08.040Z,1004.76
2017-02-27T04:29:18.401Z,1004.75
2017-02-27T04:30:29.160Z,1004.74
2017-02-27T04:31:39.905Z,1004.71
2017-02-27T04:32:50.535Z,1004.74
2017-02-27T04:34:00.493Z,1004.76
2017-02-27T04:35:11.240Z,1004.71
2017-02-27T04:36:21.588Z,1004.71
2017-02-27T04:37:31.936Z,1004.68
2017-02-27T04:38:42.545Z,1004.7
2017-02-27T04:39:53.299Z,1004.68
2017-02-27T04:41:03.661Z,1004.65
2017-02-27T04:42:14.417Z,1004.63
2017-02-27T04:43:25.179Z,1004.65
2017-02-27T04:44:35.403Z,1004.63
2017-02-27T04:45:45.362Z,1004.62
2017-02-27T04:46:56.122Z,1004.58
2017-02-27T04:48:06.470Z,1004.61
2017-02-27T04:49:17.226Z,1004.57
2017-02-27T04:50:27.488Z,1004.6
2017-02-27T04:51:37.060Z,1004.59
2017-02-27T04:52:47.019Z,1004.57
2017-02-27T04:53:57.809Z,1004.61
2017-02-27T04:55:08.211Z,1004.6
2017-02-27T04:56:19.263Z,1004.6
2017-02-27T04:57:30.013Z,1004.6
2017-02-27T04:58:40.350Z,1004.53
2017-02-27T04:59:50.726Z,1004.52
2017-02-27T05:01:01.082Z,1004.56
2017-02-27T05:02:12.093Z,1004.5
2017-02-27T05:03:22.858Z,1004.5
2017-02-27T05:04:33.606Z,1004.48
2017-02-27T05:05:44.348Z,1004.49
2017-02-27T05:06:54.284Z,1004.52
2017-02-27T05:08:04.960Z,1004.49
2017-02-27T05:09:15.344Z,1004.49
2017-02-27T05:10:26.112Z,1004.43
2017-02-27T05:11:35.683Z,1004.38
2017-02-27T05:12:46.419Z,1004.35
2017-02-27T05:13:57.423Z,1004.29
2017-02-27T05:15:07.411Z,1004.28
2017-02-27T05:16:17.775Z,1004.25
2017-02-27T05:17:28.134Z,1004.24
2017-02-27T05:18:38.486Z,1004.21
2017-02-27T05:19:49.090Z,1004.23
2017-02-27T05:20:59.846Z,1004.24
2017-02-27T05:22:10.198Z,1004.21
2017-02-27T05:23:20.969Z,1004.27
2017-02-27T05:24:31.742Z,1004.25
2017-02-27T05:25:42.729Z,1004.26
2017-02-27T05:26:53.061Z,1004.29
2017-02-27T05:28:03.522Z,1004.22
2017-02-27T05:29:14.271Z,1004.26
2017-02-27T05:30:25.012Z,1004.3
2017-02-27T05:31:36.005Z,1004.32
2017-02-27T05:32:46.761Z,1004.32
2017-02-27T05:33:57.518Z,1004.34
2017-02-27T05:35:07.885Z,1004.33
2017-02-27T05:36:17.874Z,1004.36
2017-02-27T05:37:28.466Z,1004.31
2017-02-27T05:38:39.228Z,1004.37
2017-02-27T05:39:49.983Z,1004.37
2017-02-27T05:41:00.723Z,1004.39
2017-02-27T05:42:11.471Z,1004.3
2017-02-27T05:43:22.075Z,1004.28
2017-02-27T05:44:32.446Z,1004.21
2017-02-27T05:45:43.198Z,1004.25
2017-02-27T05:46:53.944Z,1004.24
2017-02-27T05:48:04.290Z,1004.27
2017-02-27T05:49:15.298Z,1004.29
2017-02-27T05:50:25.656Z,1004.33
2017-02-27T05:51:36.020Z,1004.31
2017-02-27T05:52:45.976Z,1004.31
2017-02-27T05:53:56.338Z,1004.32
2017-02-27T05:55:06.930Z,1004.3
2017-02-27T05:56:17.695Z,1004.33
2017-02-27T05:57:27.246Z,1004.33
2017-02-27T05:58:38.002Z,1004.3
2017-02-27T05:59:48.371Z,1004.33
2017-02-27T06:00:58.591Z,1004.31
2017-02-27T06:02:08.546Z,1004.35
2017-02-27T06:03:18.914Z,1004.36
2017-02-27T06:04:29.666Z,1004.3
2017-02-27T06:05:40.416Z,1004.32
2017-02-27T06:06:51.083Z,1004.31
2017-02-27T06:08:01.855Z,1004.29
2017-02-27T06:09:12.206Z,1004.24
2017-02-27T06:10:22.959Z,1004.24
2017-02-27T06:11:33.694Z,1004.22
2017-02-27T06:12:44.749Z,1004.22
2017-02-27T06:13:55.122Z,1004.18
2017-02-27T06:15:05.095Z,1004.2
2017-02-27T06:16:15.458Z,1004.21
2017-02-27T06:17:25.443Z,1004.22
2017-02-27T06:18:36.063Z,1004.18
2017-02-27T06:19:46.828Z,1004.16
2017-02-27T06:20:57.167Z,1004.18
2017-02-27T06:22:07.574Z,1004.15
2017-02-27T06:23:18.311Z,1004.17
2017-02-27T06:24:28.921Z,1004.15
2017-02-27T06:25:39.692Z,1004.12
2017-02-27T06:26:49.623Z,1004.11
2017-02-27T06:27:59.980Z,1004.08
2017-02-27T06:29:10.335Z,1004.1
2017-02-27T06:30:21.340Z,1004.13
2017-02-27T06:31:31.709Z,1004.14
2017-02-27T06:32:42.461Z,1004.09
2017-02-27T06:33:52.043Z,1004.06
2017-02-27T06:35:02.819Z,1004.04
2017-02-27T06:36:13.845Z,1004.05
2017-02-27T06:37:24.224Z,1004.05
2017-02-27T06:38:35.014Z,1004.07
2017-02-27T06:39:45.382Z,1004.01
2017-02-27T06:40:56.145Z,1004.09
2017-02-27T06:42:07.206Z,1004.08
2017-02-27T06:43:17.990Z,1004.06
2017-02-27T06:44:28.738Z,1004.08
2017-02-27T06:45:39.133Z,1004.09
2017-02-27T06:46:49.517Z,1004.12
2017-02-27T06:48:00.515Z,1004.1
2017-02-27T06:49:11.252Z,1004.11
2017-02-27T06:50:21.619Z,1004.13
2017-02-27T06:51:32.352Z,1004.07
2017-02-27T06:52:42.720Z,1004.1
2017-02-27T06:53:53.376Z,1004.1
2017-02-27T06:55:04.116Z,1004.11
2017-02-27T06:56:14.871Z,1004.08
2017-02-27T06:57:25.250Z,1004.09
2017-02-27T06:58:34.819Z,1004.09
2017-02-27T06:59:45.433Z,1004.08
2017-02-27T07:00:55.792Z,1004.12
2017-02-27T07:02:06.180Z,1004.08
2017-02-27T07:03:16.535Z,1004.11
2017-02-27T07:04:26.097Z,1004.07
2017-02-27T07:05:36.310Z,1004.08
2017-02-27T07:06:46.685Z,1004.07
2017-02-27T07:07:56.666Z,1004.06
2017-02-27T07:09:06.707Z,1004.05
2017-02-27T07:10:17.076Z,1004.03
2017-02-27T07:11:28.143Z,1004.04
2017-02-27T07:12:38.133Z,1003.99
2017-02-27T07:13:48.957Z,1003.98
2017-02-27T07:14:58.906Z,1003.94
2017-02-27T07:16:09.306Z,1003.94
2017-02-27T07:17:19.964Z,1003.94
2017-02-27T07:18:30.753Z,1003.92
2017-02-27T07:19:41.111Z,1003.92
2017-02-27T07:20:51.876Z,1003.94
2017-02-27T07:22:02.644Z,1003.9
2017-02-27T07:23:13.716Z,1003.9
2017-02-27T07:24:23.677Z,1003.93
2017-02-27T07:25:33.684Z,1003.91
2017-02-27T07:26:44.026Z,1003.92
2017-02-27T07:27:53.616Z,1003.92
2017-02-27T07:29:04.628Z,1003.88
2017-02-27T07:30:14.589Z,1003.88
2017-02-27T07:31:24.578Z,1003.86
2017-02-27T07:32:34.150Z,1003.79
2017-02-27T07:33:44.513Z,1003.86
2017-02-27T07:34:55.584Z,1003.82
2017-02-27T07:36:05.978Z,1003.83
2017-02-27T07:37:15.953Z,1003.82
2017-02-27T07:38:26.320Z,1003.81
2017-02-27T07:39:36.686Z,1003.81
2017-02-27T07:40:47.700Z,1003.79
2017-02-27T07:41:58.449Z,1003.8
2017-02-27T07:43:08.798Z,1003.79
2017-02-27T07:44:19.562Z,1003.77
2017-02-27T07:45:30.327Z,1003.8
2017-02-27T07:46:40.993Z,1003.79
2017-02-27T07:47:50.997Z,1003.77
2017-02-27T07:49:01.016Z,1003.79
2017-02-27T07:50:10.983Z,1003.87
2017-02-27T07:51:20.936Z,1003.87
2017-02-27T07:52:31.953Z,1003.88
2017-02-27T07:53:42.363Z,1003.85
2017-02-27T07:54:53.132Z,1003.82
2017-02-27T07:56:04.167Z,1003.81
2017-02-27T07:57:14.913Z,1003.83
2017-02-27T07:58:25.511Z,1003.78
2017-02-27T07:59:35.866Z,1003.77
2017-02-27T08:00:45.837Z,1003.82
2017-02-27T08:01:56.590Z,1003.8
2017-02-27T08:03:06.975Z,1003.8
2017-02-27T08:04:17.595Z,1003.8
2017-02-27T08:05:28.375Z,1003.75
2017-02-27T08:06:39.169Z,1003.71
2017-02-27T08:07:49.966Z,1003.71
2017-02-27T08:09:00.757Z,1003.67
2017-02-27T08:10:11.053Z,1003.62
2017-02-27T08:11:21.432Z,1003.65
2017-02-27T08:12:32.212Z,1003.67
2017-02-27T08:13:42.981Z,1003.63
2017-02-27T08:14:53.408Z,1003.62
2017-02-27T08:16:04.492Z,1003.64
2017-02-27T08:17:14.864Z,1003.62
2017-02-27T08:18:25.665Z,1003.63
2017-02-27T08:19:35.653Z,1003.58
2017-02-27T08:20:46.468Z,1003.56
2017-02-27T08:21:57.575Z,1003.54
2017-02-27T08:23:07.556Z,1003.55
2017-02-27T08:24:17.930Z,1003.53
2017-02-27T08:25:28.302Z,1003.52
2017-02-27T08:26:38.654Z,1003.52
2017-02-27T08:27:49.739Z,1003.52
2017-02-27T08:28:59.687Z,1003.52
2017-02-27T08:30:10.485Z,1003.54
2017-02-27T08:31:20.849Z,1003.53
2017-02-27T08:32:31.652Z,1003.53
2017-02-27T08:33:42.750Z,1003.47
2017-02-27T08:34:53.222Z,1003.5
2017-02-27T08:36:02.420Z,1003.51
2017-02-27T08:37:13.171Z,1003.48
2017-02-27T08:38:23.927Z,1003.46
2017-02-27T08:39:34.961Z,1003.44
2017-02-27T08:40:45.316Z,1003.44
2017-02-27T08:41:55.272Z,1003.42
2017-02-27T08:43:05.665Z,1003.39
2017-02-27T08:44:16.414Z,1003.38
2017-02-27T08:45:27.030Z,1003.35
2017-02-27T08:46:37.007Z,1003.34
2017-02-27T08:47:47.764Z,1003.29
2017-02-27T08:48:57.735Z,1003.29
2017-02-27T08:50:07.720Z,1003.28
2017-02-27T08:51:18.509Z,1003.31
2017-02-27T08:52:29.597Z,1003.25
2017-02-27T08:53:40.349Z,1003.22
2017-02-27T08:54:50.717Z,1003.24
2017-02-27T08:56:00.929Z,1003.24
2017-02-27T08:57:10.887Z,1003.23
2017-02-27T08:58:21.678Z,1003.24
2017-02-27T08:59:32.443Z,1003.28
2017-02-27T09:00:42.823Z,1003.23
2017-02-27T09:01:53.468Z,1003.24
2017-02-27T09:03:04.234Z,1003.2
2017-02-27T09:04:14.864Z,1003.21
2017-02-27T09:05:25.633Z,1003.18
2017-02-27T09:06:36.394Z,1003.12
2017-02-27T09:07:47.421Z,1003.14
2017-02-27T09:08:57.796Z,1003.12
2017-02-27T09:10:07.767Z,1003.11
2017-02-27T09:11:18.128Z,1003.11
2017-02-27T09:12:28.502Z,1003.06
2017-02-27T09:13:39.024Z,1003.09
2017-02-27T09:14:48.979Z,1003
2017-02-27T09:15:59.341Z,1003.02
2017-02-27T09:17:09.324Z,1003
2017-02-27T09:18:19.659Z,1003.05
2017-02-27T09:19:30.278Z,1002.98
2017-02-27T09:20:40.650Z,1002.97
2017-02-27T09:21:51.408Z,1002.89
2017-02-27T09:23:02.202Z,1002.9
2017-02-27T09:24:12.948Z,1002.9
2017-02-27T09:25:23.552Z,1002.83
2017-02-27T09:26:33.936Z,1002.82
2017-02-27T09:27:44.724Z,1002.84
2017-02-27T09:28:55.089Z,1002.81
2017-02-27T09:30:05.450Z,1002.82
2017-02-27T09:31:16.061Z,1002.75
2017-02-27T09:32:26.823Z,1002.82
2017-02-27T09:33:36.010Z,1002.76
2017-02-27T09:34:46.368Z,1002.74
2017-02-27T09:35:57.143Z,1002.77
2017-02-27T09:37:08.156Z,1002.76
2017-02-27T09:38:18.156Z,1002.76
2017-02-27T09:39:28.536Z,1002.75
2017-02-27T09:40:38.883Z,1002.74
2017-02-27T09:41:49.655Z,1002.66
2017-02-27T09:42:59.884Z,1002.67
2017-02-27T09:44:10.250Z,1002.7
2017-02-27T09:45:20.214Z,1002.68
2017-02-27T09:46:30.177Z,1002.64
2017-02-27T09:47:40.541Z,1002.61
2017-02-27T09:48:50.887Z,1002.62
2017-02-27T09:50:00.858Z,1002.6
2017-02-27T09:51:10.801Z,1002.57
2017-02-27T09:52:21.600Z,1002.58
2017-02-27T09:53:32.617Z,1002.58
2017-02-27T09:54:42.589Z,1002.47
2017-02-27T09:55:52.947Z,1002.54
2017-02-27T09:57:03.733Z,1002.5
2017-02-27T09:58:14.509Z,1002.55
2017-02-27T09:59:25.181Z,1002.51
2017-02-27T10:00:35.142Z,1002.52
2017-02-27T10:01:45.527Z,1002.49
2017-02-27T10:02:56.300Z,1002.5
2017-02-27T10:04:06.288Z,1002.4
2017-02-27T10:05:17.313Z,1002.45
2017-02-27T10:06:28.142Z,1002.46
2017-02-27T10:07:38.880Z,1002.49
2017-02-27T10:08:49.687Z,1002.47
2017-02-27T10:09:59.645Z,1002.46
2017-02-27T10:11:10.720Z,1002.45
2017-02-27T10:12:21.099Z,1002.45
2017-02-27T10:13:31.483Z,1002.45
2017-02-27T10:14:41.866Z,1002.39
2017-02-27T10:15:52.224Z,1002.42
2017-02-27T10:17:03.238Z,1002.39
2017-02-27T10:18:13.616Z,1002.44
2017-02-27T10:19:24.394Z,1002.41
2017-02-27T10:20:35.159Z,1002.51
2017-02-27T10:21:45.517Z,1002.34
2017-02-27T10:22:56.128Z,1002.34
2017-02-27T10:24:06.477Z,1002.3
2017-02-27T10:25:17.245Z,1002.27
2017-02-27T10:26:28.016Z,1002.28
2017-02-27T10:27:37.972Z,1002.21
2017-02-27T10:28:48.986Z,1002.18
2017-02-27T10:29:59.742Z,1002.16
2017-02-27T10:31:10.515Z,1002.23
2017-02-27T10:32:21.318Z,1002.14
2017-02-27T10:33:32.083Z,1002.09
2017-02-27T10:34:43.148Z,1002.05
2017-02-27T10:35:53.901Z,1002.07
2017-02-27T10:37:04.667Z,1002.06
2017-02-27T10:38:15.453Z,1001.98
2017-02-27T10:39:26.234Z,1001.98
2017-02-27T10:40:36.868Z,1001.98
2017-02-27T10:41:47.735Z,1001.92
2017-02-27T10:42:58.112Z,1001.93
2017-02-27T10:44:08.861Z,1001.93
2017-02-27T10:45:19.620Z,1001.84
2017-02-27T10:46:30.631Z,1001.83
2017-02-27T10:47:41.404Z,1001.8
2017-02-27T10:48:51.385Z,1001.74
2017-02-27T10:50:02.151Z,1001.76
2017-02-27T10:51:12.903Z,1001.73
2017-02-27T10:52:23.133Z,1001.62
2017-02-27T10:53:33.521Z,1001.63
2017-02-27T10:54:43.878Z,1001.66
2017-02-27T10:55:54.244Z,1001.64
2017-02-27T10:57:05.027Z,1001.61
2017-02-27T10:58:16.122Z,1001.62
2017-02-27T10:59:26.112Z,1001.59
2017-02-27T11:00:36.964Z,1001.63
2017-02-27T11:01:47.315Z,1001.6
2017-02-27T11:02:58.102Z,1001.59
2017-02-27T11:04:08.474Z,1001.55
2017-02-27T11:05:19.258Z,1001.58
2017-02-27T11:06:30.054Z,1001.55
2017-02-27T11:07:40.425Z,1001.5
2017-02-27T11:08:51.530Z,1001.53
2017-02-27T11:10:02.295Z,1001.52
2017-02-27T11:11:12.678Z,1001.52
2017-02-27T11:12:23.453Z,1001.51
2017-02-27T11:13:33.859Z,1001.49
2017-02-27T11:14:44.231Z,1001.46
2017-02-27T11:15:54.992Z,1001.47
2017-02-27T11:17:04.957Z,1001.4
2017-02-27T11:18:15.707Z,1001.4
2017-02-27T11:19:26.343Z,1001.38
2017-02-27T11:20:36.688Z,1001.35
2017-02-27T11:21:47.053Z,1001.31
2017-02-27T11:22:57.824Z,1001.3
2017-02-27T11:24:08.626Z,1001.33
2017-02-27T11:25:19.641Z,1001.33
2017-02-27T11:26:29.622Z,1001.36
2017-02-27T11:27:40.392Z,1001.31
2017-02-27T11:28:50.803Z,1001.27
2017-02-27T11:30:01.600Z,1001.28
2017-02-27T11:31:13.174Z,1001.3
2017-02-27T11:32:23.552Z,1001.28
2017-02-27T11:33:33.911Z,1001.25
2017-02-27T11:34:44.707Z,1001.24
2017-02-27T11:35:55.079Z,1001.19
2017-02-27T11:37:05.599Z,1001.13
2017-02-27T11:38:15.992Z,1001.13
2017-02-27T11:39:26.457Z,1001.09
2017-02-27T11:40:36.853Z,1001.08
2017-02-27T11:41:47.625Z,1001.07
2017-02-27T11:42:58.223Z,1001.05
2017-02-27T11:44:08.580Z,1001.07
2017-02-27T11:45:18.961Z,1001.01
2017-02-27T11:46:29.324Z,1000.97
2017-02-27T11:47:39.718Z,1000.97
2017-02-27T11:48:50.492Z,1000.93
2017-02-27T11:50:00.900Z,1000.92
2017-02-27T11:51:11.283Z,1000.87
2017-02-27T11:52:20.884Z,1000.91
2017-02-27T11:53:31.249Z,1000.83
2017-02-27T11:54:41.473Z,1000.77
2017-02-27T11:55:52.230Z,1000.76
2017-02-27T11:57:02.609Z,1000.78
2017-02-27T11:58:12.978Z,1000.7
2017-02-27T11:59:23.185Z,1000.68
2017-02-27T12:00:33.574Z,1000.72
2017-02-27T12:01:44.352Z,1000.69
2017-02-27T12:02:54.724Z,1000.69
2017-02-27T12:04:05.494Z,1000.65
2017-02-27T12:05:16.116Z,1000.67
2017-02-27T12:06:26.467Z,1000.67
2017-02-27T12:07:36.810Z,1000.62
2017-02-27T12:08:47.574Z,1000.61
2017-02-27T12:09:58.345Z,1000.58
2017-02-27T12:11:08.156Z,1000.57
2017-02-27T12:12:18.543Z,1000.58
2017-02-27T12:13:28.501Z,1000.67
2017-02-27T12:14:38.495Z,1000.52
2017-02-27T12:15:49.271Z,1000.48
2017-02-27T12:16:59.910Z,1000.46
2017-02-27T12:18:10.292Z,1000.47
2017-02-27T12:19:20.656Z,1000.4
2017-02-27T12:20:31.026Z,1000.34
2017-02-27T12:21:41.402Z,1000.32
2017-02-27T12:22:52.011Z,1000.26
2017-02-27T12:24:02.901Z,1000.28
2017-02-27T12:25:13.658Z,1000.24
2017-02-27T12:26:24.454Z,1000.22
2017-02-27T12:27:34.015Z,1000.25
2017-02-27T12:28:45.021Z,1000.21
2017-02-27T12:29:55.791Z,1000.16
2017-02-27T12:31:06.163Z,1000.19
2017-02-27T12:32:16.921Z,1000.16
2017-02-27T12:33:27.295Z,1000.16
2017-02-27T12:34:38.332Z,1000.06
2017-02-27T12:35:48.719Z,1000.09
2017-02-27T12:36:59.136Z,1000.06
2017-02-27T12:38:09.525Z,1000.03
2017-02-27T12:39:19.875Z,1000.03
2017-02-27T12:40:30.146Z,1000
2017-02-27T12:41:40.526Z,1000.01
2017-02-27T12:42:50.511Z,999.95
2017-02-27T12:44:01.532Z,999.91
2017-02-27T12:45:11.933Z,999.95
2017-02-27T12:46:22.624Z,999.85
2017-02-27T12:47:33.420Z,999.86
2017-02-27T12:48:44.247Z,999.88
2017-02-27T12:49:54.643Z,999.8
2017-02-27T12:51:05.457Z,999.77
2017-02-27T12:52:16.114Z,999.74
2017-02-27T12:53:26.082Z,999.75
2017-02-27T12:54:36.042Z,999.72
2017-02-27T12:55:46.434Z,999.62
2017-02-27T12:56:56.788Z,999.63
2017-02-27T12:58:07.496Z,999.6
2017-02-27T12:59:17.503Z,999.61
2017-02-27T13:00:28.306Z,999.57
2017-02-27T13:01:39.074Z,999.53
2017-02-27T13:02:49.855Z,999.58
2017-02-27T13:04:00.536Z,999.56
2017-02-27T13:05:10.505Z,999.51
2017-02-27T13:06:20.892Z,999.53
2017-02-27T13:07:31.254Z,999.49
2017-02-27T13:08:41.238Z,999.5
2017-02-27T13:09:51.848Z,999.48
2017-02-27T13:11:02.194Z,999.47
2017-02-27T13:12:12.993Z,999.4
2017-02-27T13:13:23.379Z,999.39
2017-02-27T13:14:34.152Z,999.4
2017-02-27T13:15:45.170Z,999.37
2017-02-27T13:16:55.199Z,999.33
2017-02-27T13:18:05.607Z,999.35
2017-02-27T13:19:16.015Z,999.29
2017-02-27T13:20:26.391Z,999.26
2017-02-27T13:21:37.004Z,999.25
2017-02-27T13:22:47.408Z,999.23
2017-02-27T13:23:57.871Z,999.12
2017-02-27T13:25:08.628Z,999.11
2017-02-27T13:26:19.023Z,999.03
2017-02-27T13:27:29.639Z,999.05
2017-02-27T13:28:40.002Z,998.98
2017-02-27T13:29:50.793Z,999
2017-02-27T13:31:01.565Z,998.91
2017-02-27T13:32:11.571Z,998.9
2017-02-27T13:33:21.778Z,998.87
2017-02-27T13:34:32.169Z,998.8
2017-02-27T13:35:42.946Z,998.77
2017-02-27T13:36:53.317Z,998.71
2017-02-27T13:38:04.092Z,998.68
2017-02-27T13:39:15.095Z,998.68
2017-02-27T13:40:25.858Z,998.57
2017-02-27T13:41:36.640Z,998.58
2017-02-27T13:42:47.030Z,998.58
2017-02-27T13:43:57.526Z,998.54
2017-02-27T13:45:08.611Z,998.54
2017-02-27T13:46:19.379Z,998.45
2017-02-27T13:47:29.753Z,998.43
2017-02-27T13:48:40.130Z,998.43
2017-02-27T13:49:50.487Z,998.39
2017-02-27T13:51:01.177Z,998.36
2017-02-27T13:52:11.551Z,998.31
2017-02-27T13:53:21.955Z,998.28
2017-02-27T13:54:32.347Z,998.29
2017-02-27T13:55:43.124Z,998.25
2017-02-27T13:56:53.004Z,998.25
2017-02-27T13:58:03.800Z,998.29
2017-02-27T13:59:14.173Z,998.21
2017-02-27T14:00:24.972Z,998.21
2017-02-27T14:01:35.356Z,998.19
2017-02-27T14:02:45.583Z,998.12
2017-02-27T14:03:56.362Z,998.1
2017-02-27T14:05:07.173Z,998.03
2017-02-27T14:06:17.967Z,998.07
2017-02-27T14:07:27.557Z,998.04
2017-02-27T14:08:38.240Z,998.03
2017-02-27T14:09:48.223Z,997.92
2017-02-27T14:10:58.194Z,997.89
2017-02-27T14:12:08.971Z,997.82
2017-02-27T14:13:19.749Z,997.79
2017-02-27T14:14:30.421Z,997.78
2017-02-27T14:15:40.819Z,997.73
2017-02-27T14:16:51.617Z,997.69
2017-02-27T14:18:02.359Z,997.62
2017-02-27T14:19:12.744Z,997.63
2017-02-27T14:20:22.956Z,997.61
2017-02-27T14:21:33.308Z,997.63
2017-02-27T14:22:43.698Z,997.65
2017-02-27T14:23:54.071Z,997.64
2017-02-27T14:25:04.050Z,997.61
2017-02-27T14:26:14.288Z,997.63
2017-02-27T14:27:25.073Z,997.69
2017-02-27T14:28:35.032Z,997.62
2017-02-27T14:29:45.829Z,997.63
2017-02-27T14:30:56.607Z,997.54
2017-02-27T14:32:06.847Z,997.52
2017-02-27T14:33:17.620Z,997.47
2017-02-27T14:34:27.601Z,997.49
2017-02-27T14:35:38.386Z,997.5